Time;durP1;ratioP1;P1;durP2;ratioP2;P2;SDS_P1;SDS_P2;PMS_P1;PMS_P2;Temp;Humidity;BMP_temperature;BMP_pressure;BME280_temperature;BME280_humidity;BME280_pressure;Samples;Min_cycle;Max_cycle;Signal;HPM_P1;HPM_P2
2021/04/07 00:01:16;;;;;;;46.38;32.70;;;;;;;8.09;87.31;99007.41;5035992;28;20104;-79
2021/04/07 00:03:41;;;;;;;39.53;30.73;;;;;;;8.63;87.58;99105.53;5048584;28;20037;-77
2021/04/07 00:06:07;;;;;;;50.63;33.75;;;;;;;8.50;87.78;99091.50;5048484;28;20124;-79
2021/04/07 00:08:52;;;;;;;43.03;32.75;;;;;;;8.46;87.66;99097.38;5028832;28;20048;-76
2021/04/07 00:11:18;;;;;;;46.00;32.70;;;;;;;8.52;87.97;99119.03;5019877;28;20045;-78
2021/04/07 00:13:45;;;;;;;47.58;35.03;;;;;;;8.46;88.28;99112.81;5009838;28;20504;-77
2021/04/07 00:16:12;;;;;;;44.80;33.53;;;;;;;8.41;88.07;99104.97;5009524;28;20034;-78
2021/04/07 00:18:37;;;;;;;48.10;35.08;;;;;;;8.28;88.67;99108.13;5009709;28;20042;-78
2021/04/07 00:21:03;;;;;;;47.75;35.63;;;;;;;8.09;89.43;99089.66;5024082;28;20041;-79
2021/04/07 00:23:29;;;;;;;45.38;34.33;;;;;;;8.14;89.76;99103.50;5029314;28;20046;-78
2021/04/07 00:25:54;;;;;;;48.90;34.05;;;;;;;8.25;88.77;99101.19;5012813;28;20488;-78
2021/04/07 00:28:21;;;;;;;47.33;34.22;;;;;;;8.22;88.81;99093.41;5029355;28;20037;-78
2021/04/07 00:30:48;;;;;;;50.15;34.90;;;;;;;8.28;88.22;99097.84;5029425;28;20099;-79
2021/04/07 00:33:16;;;;;;;50.50;36.78;;;;;;;8.28;87.59;99108.13;5029175;28;20037;-78
2021/04/07 00:35:42;;;;;;;48.75;34.80;;;;;;;8.17;87.44;99111.28;4994372;28;20042;-78
2021/04/07 00:38:07;;;;;;;48.22;35.15;;;;;;;8.05;87.48;99092.97;4992904;28;20141;-79
2021/04/07 00:40:33;;;;;;;49.13;35.78;;;;;;;7.89;87.49;99084.91;5025527;28;20048;-79
2021/04/07 00:43:00;;;;;;;53.22;37.63;;;;;;;7.99;88.26;99100.53;5031420;28;20030;-78
2021/04/07 00:45:26;;;;;;;47.05;34.95;;;;;;;8.10;88.02;99109.41;5031236;28;20043;-78
2021/04/07 00:47:54;;;;;;;46.75;35.58;;;;;;;8.17;87.77;99103.56;5031513;28;20022;-78
2021/04/07 00:50:23;;;;;;;47.30;34.63;;;;;;;8.36;87.23;99097.19;5031318;28;20480;-79
2021/04/07 00:52:51;;;;;;;45.67;33.20;;;;;;;8.42;86.70;99091.28;5029065;28;20522;-78
2021/04/07 00:55:22;;;;;;;46.20;34.47;;;;;;;8.34;86.13;99077.41;5012368;28;20041;-78
2021/04/07 00:57:49;;;;;;;46.08;32.78;;;;;;;8.09;85.78;99071.69;5012541;28;20047;-78
2021/04/07 01:00:16;;;;;;;47.17;33.17;;;;;;;7.98;86.11;99084.25;5029124;28;20091;-78
2021/04/07 01:02:42;;;;;;;48.60;33.78;;;;;;;7.84;87.21;99078.78;5012597;28;20045;-78
2021/04/07 01:05:09;;;;;;;49.35;34.67;;;;;;;7.76;87.68;99078.59;5028918;28;20045;-77
2021/04/07 01:07:35;;;;;;;48.67;33.58;;;;;;;7.57;87.86;99066.94;5028865;28;20559;-77
2021/04/07 01:10:01;;;;;;;48.95;33.80;;;;;;;7.31;88.25;99025.16;5030962;28;20049;-78
2021/04/07 01:12:26;;;;;;;47.20;32.78;;;;;;;7.67;88.12;99080.91;5032341;28;20046;-79
2021/04/07 01:14:52;;;;;;;52.45;36.05;;;;;;;7.48;88.42;99066.72;5027469;28;20042;-79
2021/04/07 01:17:19;;;;;;;54.83;35.50;;;;;;;7.50;88.99;99074.44;5009321;28;20045;-79
2021/04/07 01:19:44;;;;;;;47.80;33.08;;;;;;;7.43;87.94;99073.44;5018339;28;20091;-78
2021/04/07 01:22:11;;;;;;;52.60;35.65;;;;;;;7.52;88.21;99090.78;4998615;28;20041;-78
2021/04/07 01:24:37;;;;;;;48.45;34.60;;;;;;;7.59;87.88;99093.53;5014285;28;20053;-78
2021/04/07 01:27:03;;;;;;;52.88;35.75;;;;;;;7.25;88.29;99038.72;5013451;28;20091;-78
2021/04/07 01:29:28;;;;;;;53.33;36.00;;;;;;;7.58;88.59;99084.09;5013546;28;20088;-78
2021/04/07 01:31:56;;;;;;;52.45;35.15;;;;;;;7.41;88.88;99064.81;5015102;28;20088;-78
2021/04/07 01:34:26;;;;;;;55.70;36.22;;;;;;;7.45;89.04;99093.19;5023458;28;20033;-78
2021/04/07 01:36:53;;;;;;;53.65;36.00;;;;;;;7.35;89.04;99077.47;5033002;28;20083;-79
2021/04/07 01:39:20;;;;;;;54.20;36.10;;;;;;;7.34;89.12;99093.69;5032785;28;20121;-79
2021/04/07 01:41:47;;;;;;;49.22;34.25;;;;;;;7.18;89.15;99075.31;5032908;28;20527;-78
2021/04/07 01:44:15;;;;;;;54.65;35.88;;;;;;;7.18;89.08;99084.69;5033052;28;20033;-78
2021/04/07 01:46:41;;;;;;;50.88;33.90;;;;;;;6.71;89.63;99057.72;5032834;28;20024;-78
2021/04/07 01:49:08;;;;;;;50.58;34.08;;;;;;;7.08;89.82;99109.25;5034185;28;20057;-78
2021/04/07 01:51:34;;;;;;;49.13;33.00;;;;;;;6.51;89.89;99000.72;5034141;28;20034;-78
2021/04/07 01:54:05;;;;;;;53.30;33.63;;;;;;;6.91;89.97;99078.81;5032432;28;20031;-78
2021/04/07 01:56:31;;;;;;;51.92;34.63;;;;;;;6.82;90.23;99083.69;5032760;28;20516;-78
2021/04/07 01:59:05;;;;;;;49.08;30.98;;;;;;;6.72;90.48;99089.38;5032848;28;20025;-78
2021/04/07 02:01:35;;;;;;;56.88;35.15;;;;;;;6.48;91.89;99083.53;5033914;28;20029;-78
2021/04/07 02:04:00;;;;;;;;;;;;;;;6.40;90.96;99074.72;5034298;28;20032;-78
2021/04/07 02:06:26;;;;;;;57.47;34.55;;;;;;;6.27;91.46;99059.81;5032274;28;19913;-79
2021/04/07 02:08:51;;;;;;;55.20;34.70;;;;;;;6.21;91.92;99052.78;5032612;28;20029;-78
2021/04/07 02:11:17;;;;;;;53.60;34.03;;;;;;;6.19;91.76;99046.72;5033696;28;20049;-78
2021/04/07 02:13:42;;;;;;;51.72;34.80;;;;;;;6.23;91.71;99043.47;5033933;28;20032;-78
2021/04/07 02:16:15;;;;;;;54.67;35.10;;;;;;;6.20;91.77;99038.22;5033462;28;20030;-78
2021/04/07 02:18:41;;;;;;;56.70;36.65;;;;;;;6.38;92.10;99048.19;5033415;28;20030;-78
2021/04/07 02:21:08;;;;;;;57.08;35.80;;;;;;;6.56;91.95;99054.72;5032985;28;20146;-77
2021/04/07 02:23:34;;;;;;;55.58;36.33;;;;;;;6.72;91.63;99066.31;5032335;28;20068;-78
2021/04/07 02:26:00;;;;;;;55.70;35.33;;;;;;;6.85;90.58;99068.38;5033287;28;20399;-79
2021/04/07 02:28:26;;;;;;;58.72;37.45;;;;;;;6.95;90.76;99062.72;5033363;28;20029;-80
2021/04/07 02:30:53;;;;;;;56.65;38.55;;;;;;;7.01;90.63;99048.31;5032278;28;20029;-79
2021/04/07 02:33:19;;;;;;;56.88;36.47;;;;;;;7.18;90.02;99067.63;5033093;28;20030;-79
2021/04/07 02:35:46;;;;;;;54.17;35.90;;;;;;;7.04;88.68;99028.75;5031913;28;20407;-79
2021/04/07 02:38:13;;;;;;;50.28;34.70;;;;;;;7.35;87.79;99060.38;5033279;28;20061;-79
2021/04/07 02:40:38;;;;;;;49.97;32.75;;;;;;;7.45;86.55;99061.47;5032190;28;20107;-79
2021/04/07 02:43:04;;;;;;;47.28;32.63;;;;;;;7.37;85.71;99063.84;5033253;28;20029;-78
2021/04/07 02:45:30;;;;;;;49.22;33.25;;;;;;;7.47;85.51;99064.09;5032953;28;20065;-79
2021/04/07 02:47:56;;;;;;;48.10;33.28;;;;;;;7.56;85.38;99078.06;5031566;28;20573;-79
2021/04/07 02:50:21;;;;;;;47.40;31.55;;;;;;;7.58;85.04;99078.97;5032737;28;20033;-79
2021/04/07 02:52:47;;;;;;;43.85;31.73;;;;;;;7.59;84.66;99067.84;5027460;28;20551;-79
2021/04/07 02:55:13;;;;;;;43.72;31.88;;;;;;;7.52;83.98;99044.56;5033003;28;20044;-79
2021/04/07 02:57:38;;;;;;;48.20;37.10;;;;;;;7.49;82.38;99053.03;5031885;28;20021;-79
2021/04/07 03:00:05;;;;;;;41.58;31.00;;;;;;;7.45;81.04;99087.16;5032873;28;20029;-79
2021/04/07 03:02:31;;;;;;;45.60;32.45;;;;;;;7.36;82.84;99092.91;5031180;28;20076;-79
2021/04/07 03:04:57;;;;;;;46.35;32.28;;;;;;;7.39;84.32;99087.00;5031532;28;20061;-79
2021/04/07 03:07:23;;;;;;;50.63;35.30;;;;;;;7.29;84.75;99084.19;5031756;28;20045;-79
2021/04/07 03:09:49;;;;;;;49.63;33.45;;;;;;;7.37;84.74;99089.53;5032729;28;20029;-78
2021/04/07 03:12:15;;;;;;;46.35;33.13;;;;;;;7.21;85.48;99087.38;5032081;28;20054;-78
2021/04/07 03:14:40;;;;;;;44.75;31.27;;;;;;;7.27;84.76;99082.41;5030792;28;20033;-79
2021/04/07 03:17:06;;;;;;;54.25;34.95;;;;;;;7.24;82.86;99083.19;5032559;28;20087;-78
2021/04/07 03:19:31;;;;;;;104.30;46.67;;;;;;;7.16;82.95;99066.69;5031700;28;20104;-79
2021/04/07 03:21:57;;;;;;;52.15;33.80;;;;;;;7.24;83.16;99080.63;5031152;28;20037;-79
2021/04/07 03:24:22;;;;;;;50.28;33.95;;;;;;;7.22;83.72;99083.97;5031854;28;20033;-79
2021/04/07 03:26:48;;;;;;;218.25;84.38;;;;;;;7.25;84.23;99082.38;5032138;28;20033;-79
2021/04/07 03:29:13;;;;;;;98.45;49.30;;;;;;;7.04;83.81;99041.56;5030867;28;20037;-79
2021/04/07 03:31:38;;;;;;;96.70;49.08;;;;;;;7.03;83.53;99036.38;5049205;28;20037;-79
2021/04/07 03:34:04;;;;;;;83.15;43.53;;;;;;;7.20;83.81;99078.81;5032550;28;20041;-79
2021/04/07 03:36:29;;;;;;;59.08;36.33;;;;;;;7.27;82.73;99080.69;5049551;28;20128;-79
2021/04/07 03:38:58;;;;;;;95.70;47.60;;;;;;;7.19;81.50;99092.47;5049645;28;20139;-79
2021/04/07 03:41:23;;;;;;;109.40;50.50;;;;;;;7.20;82.26;99086.50;5049638;28;20450;-79
2021/04/07 03:43:49;;;;;;;128.25;55.80;;;;;;;7.23;82.79;99088.28;5069252;28;20047;-79
2021/04/07 03:46:16;;;;;;;71.05;39.25;;;;;;;7.25;82.48;99084.94;5059363;28;20593;-79
2021/04/07 03:48:41;;;;;;;46.20;31.33;;;;;;;7.36;82.29;99097.19;5049322;28;20099;-79
2021/04/07 03:51:07;;;;;;;67.45;38.92;;;;;;;7.19;81.12;99059.09;5049538;28;20045;-79
2021/04/07 03:53:32;;;;;;;66.20;39.22;;;;;;;6.94;80.04;99027.59;5049323;28;20072;-79
2021/04/07 03:55:58;;;;;;;60.05;36.03;;;;;;;7.32;80.34;99092.81;5048998;28;20475;-79
2021/04/07 03:58:24;;;;;;;45.28;29.05;;;;;;;7.25;79.81;99090.06;5049194;28;20491;-80
2021/04/07 04:00:51;;;;;;;28.77;18.90;;;;;;;7.19;79.57;99096.69;5049254;28;20029;-79
2021/04/07 04:03:17;;;;;;;22.08;16.25;;;;;;;7.05;78.98;99088.63;5033990;28;20424;-79
2021/04/07 04:05:42;;;;;;;72.57;31.25;;;;;;;6.86;79.51;99057.28;5029190;28;20083;-79
2021/04/07 04:08:08;;;;;;;76.60;33.50;;;;;;;7.04;80.32;99108.28;5029095;28;20033;-79
2021/04/07 04:10:34;;;;;;;183.52;35.10;;;;;;;6.92;81.42;99108.78;5029226;28;20555;-79
2021/04/07 04:13:02;;;;;;;162.80;33.33;;;;;;;6.87;81.76;99094.97;5012689;28;20120;-79
2021/04/07 04:15:27;;;;;;;243.98;63.13;;;;;;;6.82;81.66;99080.25;5015535;28;20046;-79
2021/04/07 04:17:53;;;;;;;45.28;24.63;;;;;;;6.80;80.76;99103.28;5011590;28;20026;-78
2021/04/07 04:20:21;;;;;;;71.57;25.95;;;;;;;6.61;80.48;99095.03;5020242;28;20036;-80
2021/04/07 04:22:47;;;;;;;52.90;23.70;;;;;;;6.43;80.98;99100.47;5030298;28;20468;-80
2021/04/07 04:25:19;;;;;;;53.10;23.23;;;;;;;6.36;80.78;99101.09;5028807;28;20072;-79
2021/04/07 04:27:45;;;;;;;93.95;24.95;;;;;;;6.45;80.81;99103.94;5014842;28;20125;-79
2021/04/07 04:30:13;;;;;;;45.60;24.48;;;;;;;6.45;80.78;99096.25;5009272;28;20103;-79
2021/04/07 04:32:39;;;;;;;50.78;23.83;;;;;;;6.24;81.17;99062.25;5009380;28;20488;-79
2021/04/07 04:35:06;;;;;;;87.78;25.92;;;;;;;6.34;81.66;99089.06;5008980;28;20042;-79
2021/04/07 04:37:31;;;;;;;64.10;25.38;;;;;;;6.28;81.75;99085.50;4992645;28;20045;-77
2021/04/07 04:39:57;;;;;;;54.58;26.67;;;;;;;6.50;81.75;99123.75;5026570;28;20049;-79
2021/04/07 04:42:22;;;;;;;74.70;29.50;;;;;;;6.42;81.70;99115.81;5029047;28;20033;-79
2021/04/07 04:44:48;;;;;;;94.15;26.27;;;;;;;6.26;82.60;99128.13;5032035;28;20041;-79
2021/04/07 04:47:13;;;;;;;141.80;33.17;;;;;;;6.26;82.96;99132.41;5032670;28;20038;-79
2021/04/07 04:49:39;;;;;;;102.40;40.28;;;;;;;6.36;83.75;99123.31;5032831;28;20134;-78
2021/04/07 04:52:04;;;;;;;182.40;61.35;;;;;;;6.41;83.51;99132.00;5032758;28;20033;-79
2021/04/07 04:54:30;;;;;;;137.82;45.45;;;;;;;5.96;83.92;99071.59;5015942;28;20025;-79
2021/04/07 04:56:55;;;;;;;149.45;51.28;;;;;;;6.35;84.20;99126.69;5034159;28;20041;-79
2021/04/07 04:59:21;;;;;;;129.32;48.13;;;;;;;6.28;84.31;99128.16;5034784;28;20036;-79
2021/04/07 05:01:46;;;;;;;102.50;43.33;;;;;;;6.30;84.84;99144.47;5034648;28;20087;-79
2021/04/07 05:04:12;;;;;;;93.75;42.30;;;;;;;6.27;85.55;99147.81;5033719;28;20040;-79
2021/04/07 05:06:38;;;;;;;85.35;41.83;;;;;;;6.22;86.08;99144.22;5033589;28;20041;-78
2021/04/07 05:09:04;;;;;;;72.00;40.15;;;;;;;6.17;86.51;99148.34;5034867;28;20472;-79
2021/04/07 05:11:32;;;;;;;80.43;40.03;;;;;;;5.99;86.99;99138.31;5034680;28;20072;-79
2021/04/07 05:14:01;;;;;;;74.88;38.17;;;;;;;6.04;87.08;99143.63;5033247;28;20099;-79
2021/04/07 05:16:27;;;;;;;75.35;48.28;;;;;;;5.88;88.65;99149.88;5033449;28;20025;-77
2021/04/07 05:18:52;;;;;;;122.68;36.70;;;;;;;5.68;90.05;99155.16;5033273;28;20029;-79
2021/04/07 05:21:18;;;;;;;159.98;37.58;;;;;;;5.59;91.09;99157.41;5033739;28;20083;-79
2021/04/07 05:23:43;;;;;;;152.02;39.88;;;;;;;5.60;92.50;99185.63;5033264;28;20454;-79
2021/04/07 05:26:09;;;;;;;145.88;41.97;;;;;;;5.60;93.05;99160.03;5034259;28;20033;-78
2021/04/07 05:28:34;;;;;;;190.90;48.78;;;;;;;5.70;94.49;99170.59;5034484;28;20472;-78
2021/04/07 05:31:01;;;;;;;163.50;36.67;;;;;;;5.67;95.64;99154.31;5020874;28;20030;-79
2021/04/07 05:33:36;;;;;;;118.90;34.90;;;;;;;5.89;96.89;99157.59;5014723;28;20105;-79
2021/04/07 05:36:05;;;;;;;62.60;34.30;;;;;;;6.03;96.92;99162.38;5014753;28;20112;-78
2021/04/07 05:38:30;;;;;;;56.53;35.50;;;;;;;5.92;96.73;99141.47;5014406;28;20030;-79
2021/04/07 05:40:57;;;;;;;52.42;32.47;;;;;;;5.87;97.57;99099.47;5014577;28;20041;-79
2021/04/07 05:43:24;;;;;;;55.25;34.53;;;;;;;6.25;96.89;99143.47;5014329;28;20401;-79
2021/04/07 05:45:50;;;;;;;87.70;45.22;;;;;;;6.21;96.29;99098.91;5013111;28;20041;-79
2021/04/07 05:48:16;;;;;;;79.57;43.55;;;;;;;6.59;97.30;99119.78;5013242;28;20033;-79
2021/04/07 05:50:43;;;;;;;53.42;35.90;;;;;;;6.87;97.36;99112.06;5012931;28;20034;-79
2021/04/07 05:53:09;;;;;;;56.22;36.28;;;;;;;6.97;97.03;99108.94;5012876;28;20029;-80
2021/04/07 05:55:35;;;;;;;49.92;33.08;;;;;;;6.90;96.16;99122.41;5012081;28;20104;-79
2021/04/07 05:58:04;;;;;;;184.48;77.43;;;;;;;7.02;95.89;99132.16;5012861;28;20034;-80
2021/04/07 06:00:30;;;;;;;58.05;38.30;;;;;;;7.18;95.27;99130.88;5014247;28;20443;-80
2021/04/07 06:02:57;;;;;;;47.72;33.35;;;;;;;7.31;95.36;99133.00;5012976;28;20034;-80
2021/04/07 06:05:23;;;;;;;58.10;36.40;;;;;;;7.34;96.29;99127.06;5014147;28;20032;-80
2021/04/07 06:07:53;;;;;;;62.85;35.50;;;;;;;7.49;97.02;99124.94;5014316;28;20105;-80
2021/04/07 06:10:19;;;;;;;65.90;36.63;;;;;;;7.61;96.74;99150.97;5012335;28;20121;-80
2021/04/07 06:12:44;;;;;;;57.28;35.67;;;;;;;7.61;96.29;99133.00;5012839;28;20120;-80
2021/04/07 06:15:11;;;;;;;60.33;34.78;;;;;;;7.93;96.24;99140.66;5013844;28;20502;-80
2021/04/07 06:17:37;;;;;;;92.15;37.35;;;;;;;8.25;95.22;99150.91;5012493;28;20076;-79
2021/04/07 06:20:08;;;;;;;47.53;30.50;;;;;;;8.48;95.76;99153.19;5013845;28;20080;-80
2021/04/07 06:22:34;;;;;;;58.30;34.60;;;;;;;8.62;93.46;99152.66;5013575;28;20133;-80
2021/04/07 06:25:00;;;;;;;58.60;35.65;;;;;;;8.41;93.41;99116.16;5019588;28;20535;-81
2021/04/07 06:27:26;;;;;;;197.75;83.57;;;;;;;8.62;93.09;99137.22;5033472;28;20447;-81
2021/04/07 06:29:52;;;;;;;52.63;33.83;;;;;;;8.66;93.14;99133.88;5032160;28;20021;-80
2021/04/07 06:32:18;;;;;;;68.53;37.85;;;;;;;8.43;93.03;99104.19;5019694;28;20457;-80
2021/04/07 06:34:43;;;;;;;59.67;35.92;;;;;;;8.81;94.87;99126.53;5023417;28;20032;-80
2021/04/07 06:37:09;;;;;;;70.45;40.30;;;;;;;8.85;94.27;99141.19;5025742;28;20037;-80
2021/04/07 06:39:34;;;;;;;63.65;36.38;;;;;;;8.84;94.21;99144.59;5028470;28;20398;-80
2021/04/07 06:42:00;;;;;;;55.63;35.30;;;;;;;8.83;94.53;99158.28;5023789;28;20040;-80
2021/04/07 06:44:26;;;;;;;77.88;43.83;;;;;;;8.89;93.47;99173.03;5021577;28;20033;-79
2021/04/07 06:46:55;;;;;;;160.18;88.13;;;;;;;8.67;92.76;99121.06;5020797;28;20057;-81
2021/04/07 06:49:22;;;;;;;50.33;35.80;;;;;;;9.10;93.83;99170.06;5023552;28;20109;-81
2021/04/07 06:51:52;;;;;;;50.63;33.75;;;;;;;9.32;94.53;99165.34;5021369;28;20580;-80
2021/04/07 06:54:21;;;;;;;40.95;28.95;;;;;;;9.53;93.45;99170.06;5020361;28;20080;-80
2021/04/07 06:56:49;;;;;;;42.65;28.60;;;;;;;9.81;92.39;99180.94;5021332;28;20108;-80
2021/04/07 06:59:14;;;;;;;37.38;26.80;;;;;;;9.96;91.26;99185.53;5022103;28;20026;-81
2021/04/07 07:01:39;;;;;;;39.05;27.88;;;;;;;10.18;91.90;99190.22;5021451;28;20029;-80
2021/04/07 07:04:05;;;;;;;40.45;27.85;;;;;;;10.47;91.15;99184.72;5021302;28;20021;-80
2021/04/07 07:06:31;;;;;;;31.13;22.25;;;;;;;10.36;87.56;99143.25;5013225;28;20052;-80
2021/04/07 07:19:01;;;;;;;36.63;24.50;;;;;;;10.68;91.45;99158.38;5073221;27;20399;-79
2021/04/07 07:21:26;;;;;;;33.65;24.88;;;;;;;11.19;89.67;99211.63;5075398;28;20032;-80
2021/04/07 07:23:52;;;;;;;44.28;26.52;;;;;;;11.24;86.72;99208.25;5073930;28;20060;-80
2021/04/07 07:26:19;;;;;;;75.22;38.40;;;;;;;11.23;85.37;99196.19;5087391;28;20097;-80
2021/04/07 07:28:55;;;;;;;79.80;39.53;;;;;;;11.28;85.66;99186.78;5076535;28;20042;-80
2021/04/07 07:31:30;;;;;;;44.25;30.17;;;;;;;11.37;87.18;99196.38;5068576;28;20055;-80
2021/04/07 07:33:58;;;;;;;44.38;31.08;;;;;;;11.46;89.40;99193.03;5068446;28;20032;-80
2021/04/07 07:36:29;;;;;;;43.38;30.42;;;;;;;11.48;87.96;99192.19;5068764;28;20036;-80
2021/04/07 07:38:56;;;;;;;61.67;31.38;;;;;;;11.51;86.41;99190.50;5068910;28;20017;-80
2021/04/07 07:41:25;;;;;;;46.83;28.10;;;;;;;11.68;88.43;99195.91;5068839;28;20025;-81
2021/04/07 07:43:51;;;;;;;47.50;27.38;;;;;;;11.91;88.21;99212.56;5068531;28;20146;-80
2021/04/07 07:46:21;;;;;;;43.20;24.30;;;;;;;11.87;84.15;99209.91;5068484;28;20083;-80
2021/04/07 07:48:47;;;;;;;42.17;24.25;;;;;;;12.01;85.28;99207.50;5068097;28;20524;-80
2021/04/07 07:51:18;;;;;;;49.83;32.00;;;;;;;12.15;84.11;99198.16;5067152;28;20107;-80
2021/04/07 07:53:45;;;;;;;38.58;24.67;;;;;;;12.15;84.26;99182.66;5068083;28;20035;-79
2021/04/07 07:56:12;;;;;;;39.72;27.35;;;;;;;12.38;83.88;99202.69;5068481;28;20044;-80
2021/04/07 07:58:44;;;;;;;37.33;25.48;;;;;;;12.53;82.89;99201.97;5067922;28;20028;-80
2021/04/07 08:01:11;;;;;;;58.88;33.25;;;;;;;12.52;81.30;99201.06;5066695;28;20039;-80
2021/04/07 08:03:37;;;;;;;73.78;37.00;;;;;;;12.75;81.95;99205.59;5068327;28;20021;-80
2021/04/07 08:06:04;;;;;;;40.92;25.20;;;;;;;12.88;81.84;99209.13;5068351;28;20111;-80
2021/04/07 08:08:29;;;;;;;41.42;24.73;;;;;;;13.00;81.02;99221.31;5066844;28;20024;-80
2021/04/07 08:16:47;;;;;;;43.78;24.75;;;;;;;13.25;79.80;99225.78;5088325;27;915469;-80
2021/04/07 08:19:14;;;;;;;42.67;24.02;;;;;;;13.58;78.91;99236.34;5109814;28;20043;-80
2021/04/07 08:21:41;;;;;;;28.83;19.98;;;;;;;13.61;76.45;99215.63;5090365;28;20043;-80
2021/04/07 08:24:08;;;;;;;27.98;16.42;;;;;;;13.81;76.28;99238.22;5107462;28;20023;-81
2021/04/07 08:26:37;;;;;;;20.63;14.73;;;;;;;13.95;74.19;99226.13;5091325;28;20408;-80
2021/04/07 08:29:06;;;;;;;27.05;17.85;;;;;;;14.11;78.91;99229.66;5091112;28;20056;-80
2021/04/07 08:31:34;;;;;;;25.02;16.73;;;;;;;13.95;75.04;99189.81;5091113;28;20036;-80
2021/04/07 08:34:03;;;;;;;22.50;15.15;;;;;;;14.35;74.52;99226.22;5109379;28;20082;-80
2021/04/07 08:36:30;;;;;;;27.13;16.27;;;;;;;14.47;74.00;99227.13;5109219;28;20042;-80
2021/04/07 08:39:05;;;;;;;26.83;15.75;;;;;;;14.59;73.45;99218.47;5109222;28;20122;-80
2021/04/07 08:41:31;;;;;;;22.10;14.07;;;;;;;14.59;71.76;99224.50;5109489;28;20028;-80
2021/04/07 08:43:59;;;;;;;19.67;12.20;;;;;;;14.52;71.22;99221.06;5109009;28;20032;-83
2021/04/07 08:46:27;;;;;;;50.08;24.70;;;;;;;14.42;72.51;99219.31;5108834;28;20063;-81
2021/04/07 08:48:52;;;;;;;46.33;22.65;;;;;;;14.35;72.00;99210.63;5109023;28;20027;-82
2021/04/07 08:51:21;;;;;;;26.70;14.20;;;;;;;14.67;72.50;99220.22;5090717;28;20027;-82
2021/04/07 08:53:50;;;;;;;125.90;50.60;;;;;;;14.94;70.25;99228.00;5109387;28;20032;-82
2021/04/07 08:56:21;;;;;;;26.20;15.05;;;;;;;15.07;72.57;99226.28;5108801;28;20118;-81
2021/04/07 08:58:58;;;;;;;20.55;13.23;;;;;;;15.37;70.30;99231.41;5108546;28;20042;-81
2021/04/07 09:01:30;;;;;;;22.70;11.85;;;;;;;15.45;70.82;99235.72;5090852;28;20023;-82
2021/04/07 09:04:14;;;;;;;26.90;16.08;;;;;;;15.57;68.18;99238.28;5108615;28;20481;-81
2021/04/07 09:06:56;;;;;;;45.90;22.25;;;;;;;15.51;68.92;99251.31;5102007;28;20031;-80
2021/04/07 09:09:23;;;;;;;33.05;16.95;;;;;;;15.63;69.22;99240.84;5105653;28;20035;-80
2021/04/07 09:11:49;;;;;;;61.15;41.45;;;;;;;15.63;69.26;99196.63;5080169;28;20032;-81
2021/04/07 09:14:16;;;;;;;17.23;11.95;;;;;;;16.04;67.90;99240.72;5095733;28;20107;-81
2021/04/07 09:16:43;;;;;;;19.95;12.38;;;;;;;16.04;68.55;99238.09;5080647;28;20044;-81
2021/04/07 09:19:20;;;;;;;22.92;14.93;;;;;;;15.97;68.51;99237.28;5094006;28;20073;-82
2021/04/07 09:21:53;;;;;;;27.95;17.08;;;;;;;16.01;68.40;99233.78;5097264;28;20036;-81
2021/04/07 09:24:19;;;;;;;20.05;13.07;;;;;;;15.97;72.55;99232.09;5097746;28;20059;-83
2021/04/07 09:26:49;;;;;;;24.70;15.65;;;;;;;16.18;67.14;99241.50;5071803;28;20726;-82
2021/04/07 09:29:16;;;;;;;28.05;17.48;;;;;;;16.16;69.11;99231.13;5084408;28;20084;-82
2021/04/07 09:31:42;;;;;;;37.45;20.98;;;;;;;16.11;69.55;99252.81;5084972;28;20111;-82
2021/04/07 09:34:13;;;;;;;20.88;14.32;;;;;;;15.87;68.12;99167.94;5072802;28;20021;-82
2021/04/07 09:36:40;;;;;;;17.02;12.23;;;;;;;16.19;68.88;99243.25;5088822;28;20028;-83
2021/04/07 09:39:11;;;;;;;15.18;12.32;;;;;;;16.27;67.21;99264.03;5094494;28;20495;-83
2021/04/07 09:41:40;;;;;;;26.73;13.40;;;;;;;16.08;68.69;99232.03;5093863;28;20024;-84
2021/04/07 09:44:08;;;;;;;22.23;16.35;;;;;;;16.04;65.02;99238.09;5094488;28;20057;-75
2021/04/07 09:46:35;;;;;;;26.83;15.70;;;;;;;16.06;64.24;99273.66;5093849;28;20040;-81
2021/04/07 09:49:05;;;;;;;13.95;11.32;;;;;;;16.18;65.84;99275.38;5075587;28;20056;-81
2021/04/07 09:51:42;;;;;;;16.42;10.95;;;;;;;16.12;63.67;99264.97;5077151;28;20057;-83
2021/04/07 09:54:17;;;;;;;13.32;10.52;;;;;;;15.95;65.06;99286.75;5079742;28;20069;-82
2021/04/07 09:56:45;;;;;;;14.18;10.30;;;;;;;16.00;64.54;99311.03;5099601;28;20109;-85
2021/04/07 09:59:11;;;;;;;17.67;11.48;;;;;;;16.12;66.85;99310.09;5075263;28;20058;-82
2021/04/07 10:01:38;;;;;;;16.52;11.00;;;;;;;15.94;65.69;99294.59;5081852;28;20125;-82
2021/04/07 10:04:04;;;;;;;12.27;9.40;;;;;;;16.17;62.79;99302.28;5080603;28;20034;-83
2021/04/07 10:06:31;;;;;;;15.68;9.93;;;;;;;15.83;63.95;99265.97;5065216;28;20028;-83
2021/04/07 10:09:03;;;;;;;18.13;9.63;;;;;;;16.24;61.43;99314.41;5080866;28;20031;-83
2021/04/07 10:11:29;;;;;;;16.17;10.40;;;;;;;16.48;64.57;99318.59;5066824;28;20036;-83
2021/04/07 10:13:59;;;;;;;14.52;9.35;;;;;;;16.42;60.78;99291.72;5079772;28;20473;-84
2021/04/07 10:16:25;;;;;;;21.20;10.27;;;;;;;16.04;60.44;99279.75;5049665;28;20049;-80
2021/04/07 10:18:52;;;;;;;28.85;14.48;;;;;;;16.32;62.38;99315.22;5050101;28;20033;-81
2021/04/07 10:21:20;;;;;;;48.17;25.83;;;;;;;16.48;59.87;99308.19;5050009;28;20094;-81
2021/04/07 10:23:47;;;;;;;30.50;17.35;;;;;;;16.55;57.93;99310.75;5049812;28;20474;-83
2021/04/07 10:26:16;;;;;;;21.33;13.45;;;;;;;16.56;61.22;99315.09;5032812;28;20080;-74
2021/04/07 10:28:53;;;;;;;23.00;15.27;;;;;;;16.33;59.55;99327.34;5047894;28;20025;-74
2021/04/07 10:31:20;;;;;;;33.28;19.35;;;;;;;16.53;60.10;99331.59;5048481;28;20170;-74
2021/04/07 10:33:46;;;;;;;33.72;20.00;;;;;;;16.69;58.66;99331.53;5045906;28;20044;-71
2021/04/07 10:36:11;;;;;;;13.05;10.20;;;;;;;16.29;58.43;99343.88;5043210;28;20044;-73
2021/04/07 10:38:36;;;;;;;13.50;9.70;;;;;;;15.89;59.65;99343.16;5045056;28;20604;-73
2021/04/07 10:41:04;;;;;;;35.40;20.85;;;;;;;16.09;59.99;99350.94;5049998;28;20116;-73
2021/04/07 10:43:32;;;;;;;14.75;10.40;;;;;;;16.40;61.46;99354.25;5033718;28;20124;-71
2021/04/07 10:46:03;;;;;;;13.10;9.15;;;;;;;16.39;56.84;99351.66;5050518;28;20040;-73
2021/04/07 10:48:29;;;;;;;12.73;9.50;;;;;;;16.31;59.13;99351.69;5075206;28;20048;-74
2021/04/07 10:50:56;;;;;;;14.50;10.35;;;;;;;16.33;58.15;99357.75;5066557;28;20029;-76
2021/04/07 10:53:38;;;;;;;13.38;9.23;;;;;;;16.28;57.32;99362.13;5072178;28;20440;-74
2021/04/07 10:56:17;;;;;;;16.25;10.77;;;;;;;16.20;58.00;99336.13;5072359;28;20108;-73
2021/04/07 10:58:43;;;;;;;18.70;12.20;;;;;;;16.73;58.05;99341.06;5072388;28;20024;-75
2021/04/07 11:01:10;;;;;;;20.55;12.45;;;;;;;16.98;59.39;99354.81;5076482;28;20039;-73
2021/04/07 11:03:36;;;;;;;15.02;10.13;;;;;;;16.89;60.03;99314.00;5080624;28;20078;-73
2021/04/07 11:06:03;;;;;;;14.60;8.98;;;;;;;17.41;55.67;99356.22;5081962;28;20039;-71
2021/04/07 11:08:39;;;;;;;12.27;8.88;;;;;;;17.34;56.03;99364.97;5092156;28;20089;-72
2021/04/07 11:11:06;;;;;;;69.43;12.52;;;;;;;16.74;57.37;99361.03;5092181;28;20067;-71
2021/04/07 11:13:33;;;;;;;164.60;21.25;;;;;;;16.66;58.13;99366.28;5092274;28;20069;-72
2021/04/07 11:16:09;;;;;;;81.50;13.90;;;;;;;16.39;59.00;99377.72;5092074;28;20047;-71
2021/04/07 11:18:36;;;;;;;119.25;30.08;;;;;;;16.24;58.35;99382.09;5092395;28;20036;-74
2021/04/07 11:21:02;;;;;;;31.42;11.73;;;;;;;16.29;57.63;99382.94;5092384;28;20073;-75
2021/04/07 11:23:28;;;;;;;10.88;8.77;;;;;;;16.17;57.17;99356.94;5089113;28;20020;-73
2021/04/07 11:25:54;;;;;;;15.57;8.95;;;;;;;16.26;56.83;99384.69;5080378;28;20074;-71
2021/04/07 11:28:20;;;;;;;188.85;18.30;;;;;;;16.03;57.80;99337.94;5086349;28;20036;-73
2021/04/07 11:33:45;;;;;;;159.15;17.45;;;;;;;15.99;57.96;99350.09;5029391;28;20505;-75
2021/04/07 11:54:47;;;;;;;89.32;25.70;;;;;;;15.12;62.23;99417.75;5088141;28;20395;-74
2021/04/07 11:57:12;;;;;;;165.23;73.45;;;;;;;14.91;60.64;99415.97;5089038;28;20428;-72
2021/04/07 11:59:38;;;;;;;32.08;10.75;;;;;;;14.88;60.91;99444.56;5087419;28;20401;-71